createdAt,value
2022-07-30T00:01:14.805Z,30.70
2022-07-30T00:03:48.926Z,30.80
2022-07-30T00:06:25.440Z,31.30
2022-07-30T00:09:00.857Z,31.50
2022-07-30T00:11:34.314Z,31.70
2022-07-30T00:14:07.316Z,31.80
2022-07-30T00:16:40.894Z,31.90
2022-07-30T00:19:14.569Z,31.80
2022-07-30T00:21:50.870Z,32.00
2022-07-30T00:24:27.931Z,32.90
2022-07-30T00:27:02.237Z,33.40
2022-07-30T00:29:35.971Z,34.20
2022-07-30T00:32:18.715Z,34.40
2022-07-30T00:34:52.782Z,34.30
2022-07-30T00:37:26.992Z,33.50
2022-07-30T00:40:04.282Z,33.80
2022-07-30T00:42:46.283Z,33.20
2022-07-30T00:45:20.951Z,32.90
2022-07-30T00:47:54.350Z,32.50
2022-07-30T00:50:27.771Z,32.50
2022-07-30T00:53:01.832Z,32.40
2022-07-30T00:55:36.809Z,32.50
2022-07-30T00:58:12.640Z,32.70
2022-07-30T01:00:45.780Z,32.90
2022-07-30T01:03:19.614Z,33.70
2022-07-30T01:05:54.035Z,34.00
2022-07-30T01:08:29.082Z,34.10
2022-07-30T01:11:05.276Z,34.20
2022-07-30T01:13:39.002Z,34.80
2022-07-30T01:16:12.922Z,35.10
2022-07-30T01:19:05.871Z,35.90
2022-07-30T01:21:44.627Z,36.70
2022-07-30T01:24:27.579Z,37.50
2022-07-30T01:27:04.400Z,37.50
2022-07-30T01:29:55.206Z,37.20
2022-07-30T01:32:30.217Z,37.30
2022-07-30T01:35:05.282Z,36.90
2022-07-30T01:37:40.125Z,36.50
2022-07-30T01:40:16.256Z,36.10
2022-07-30T01:42:56.036Z,35.80
2022-07-30T01:45:35.716Z,36.50
2022-07-30T01:48:17.223Z,37.10
2022-07-30T01:50:53.428Z,37.30
2022-07-30T01:53:29.890Z,36.90
2022-07-30T01:56:06.021Z,36.70
2022-07-30T02:01:37.663Z,37.00
2022-07-30T02:04:10.790Z,37.80
2022-07-30T02:06:47.602Z,37.70
2022-07-30T02:09:30.447Z,37.10
2022-07-30T02:12:21.812Z,38.30
2022-07-30T02:15:01.934Z,38.70
2022-07-30T02:17:44.972Z,37.40
2022-07-30T02:20:20.405Z,38.10
2022-07-30T02:23:02.384Z,38.40
2022-07-30T02:25:38.907Z,39.40
2022-07-30T02:28:17.117Z,40.10
2022-07-30T02:30:55.190Z,39.90
2022-07-30T02:33:34.504Z,39.90
2022-07-30T02:36:11.549Z,39.60
2022-07-30T02:38:46.995Z,39.90
2022-07-30T02:41:21.781Z,39.40
2022-07-30T02:43:57.151Z,39.60
2022-07-30T02:46:34.869Z,40.30
2022-07-30T02:49:33.820Z,40.70
2022-07-30T02:52:13.428Z,39.60
2022-07-30T02:54:48.226Z,38.80
2022-07-30T02:57:24.882Z,38.40
2022-07-30T02:59:59.863Z,38.90
2022-07-30T03:02:37.679Z,38.70
2022-07-30T03:05:13.633Z,38.70
2022-07-30T03:07:47.661Z,38.40
2022-07-30T03:10:22.036Z,38.60
2022-07-30T03:12:57.489Z,40.10
2022-07-30T03:15:34.127Z,40.40
2022-07-30T03:18:17.140Z,39.90
2022-07-30T03:20:53.723Z,41.00
2022-07-30T03:23:29.640Z,40.00
2022-07-30T03:26:06.409Z,39.20
2022-07-30T03:28:47.383Z,38.90
2022-07-30T03:31:21.849Z,39.40
2022-07-30T03:33:59.046Z,39.90
2022-07-30T03:36:34.789Z,40.00
2022-07-30T03:39:10.872Z,39.50
2022-07-30T03:41:51.484Z,38.40
2022-07-30T03:44:26.041Z,37.80
2022-07-30T03:47:02.220Z,37.40
2022-07-30T03:49:43.506Z,38.90
2022-07-30T03:52:19.267Z,39.50
2022-07-30T03:54:53.953Z,39.10
2022-07-30T03:57:59.839Z,39.10
2022-07-30T04:00:36.276Z,38.20
2022-07-30T04:03:20.633Z,38.30
2022-07-30T04:05:57.851Z,38.80
2022-07-30T04:08:33.286Z,38.40
2022-07-30T04:11:06.896Z,38.70
2022-07-30T04:13:56.473Z,38.60
2022-07-30T04:16:48.548Z,38.50
2022-07-30T04:19:26.733Z,38.60
2022-07-30T04:22:24.331Z,38.80
2022-07-30T04:24:59.497Z,39.00
2022-07-30T04:27:37.012Z,39.00
2022-07-30T04:30:31.411Z,38.70
2022-07-30T04:33:11.801Z,39.00
2022-07-30T04:36:00.695Z,38.90
2022-07-30T04:38:44.370Z,38.60
2022-07-30T04:41:48.242Z,38.70
2022-07-30T04:44:42.647Z,38.70
2022-07-30T04:47:30.551Z,38.10
2022-07-30T04:50:31.550Z,37.70
2022-07-30T04:53:06.387Z,37.10
2022-07-30T04:55:48.946Z,36.70
2022-07-30T04:58:26.096Z,36.70
2022-07-30T05:01:02.133Z,36.80
2022-07-30T05:03:39.276Z,37.10
2022-07-30T05:06:18.510Z,37.40
2022-07-30T05:08:52.738Z,37.60
2022-07-30T05:11:53.519Z,37.70
2022-07-30T05:14:28.607Z,37.10
2022-07-30T05:17:02.494Z,37.00
2022-07-30T05:19:37.134Z,37.00
2022-07-30T05:22:10.519Z,37.20
2022-07-30T05:24:45.345Z,37.20
2022-07-30T05:27:22.014Z,37.50
2022-07-30T05:29:56.516Z,37.70
2022-07-30T05:32:31.478Z,37.90
2022-07-30T05:35:06.338Z,38.40
2022-07-30T05:37:40.717Z,38.40
2022-07-30T05:40:15.400Z,38.30
2022-07-30T05:42:50.833Z,38.40
2022-07-30T05:45:24.604Z,37.80
2022-07-30T05:50:47.019Z,37.50
2022-07-30T05:53:21.471Z,37.60
2022-07-30T05:56:30.143Z,38.20
2022-07-30T05:59:11.368Z,38.40
2022-07-30T06:02:04.791Z,38.10
2022-07-30T06:04:59.385Z,37.80
2022-07-30T06:07:35.018Z,38.00
2022-07-30T06:10:10.902Z,37.80
2022-07-30T06:12:45.273Z,37.60
2022-07-30T06:15:25.875Z,37.50
2022-07-30T06:18:01.813Z,37.80
2022-07-30T06:20:52.983Z,37.80
2022-07-30T06:23:42.962Z,38.00
2022-07-30T06:26:35.090Z,37.90
2022-07-30T06:29:10.774Z,37.70
2022-07-30T06:31:47.955Z,37.90
2022-07-30T06:34:21.933Z,37.70
2022-07-30T06:36:55.440Z,37.60
2022-07-30T06:39:57.480Z,37.60
2022-07-30T06:42:57.520Z,37.70
2022-07-30T06:45:49.472Z,37.70
2022-07-30T06:48:30.969Z,37.60
2022-07-30T06:51:06.381Z,37.70
2022-07-30T06:53:42.748Z,37.70
2022-07-30T06:56:37.731Z,37.70
2022-07-30T06:59:15.909Z,37.70
2022-07-30T07:02:10.666Z,37.50
2022-07-30T07:05:04.709Z,37.60
2022-07-30T07:07:43.210Z,37.70
2022-07-30T07:10:22.274Z,37.50
2022-07-30T07:13:23.087Z,37.30
2022-07-30T07:15:57.473Z,37.20
2022-07-30T07:18:34.071Z,37.20
2022-07-30T07:21:12.912Z,37.40
2022-07-30T07:23:47.317Z,37.40
2022-07-30T07:26:40.904Z,37.70
2022-07-30T07:29:17.921Z,37.90
2022-07-30T07:32:05.478Z,37.70
2022-07-30T07:34:44.209Z,37.70
2022-07-30T07:37:19.063Z,37.70
2022-07-30T07:39:58.763Z,37.80
2022-07-30T07:42:34.754Z,37.80
2022-07-30T07:45:11.740Z,37.80
2022-07-30T07:47:54.031Z,38.10
2022-07-30T07:50:44.805Z,38.20
2022-07-30T07:53:27.497Z,38.40
2022-07-30T07:56:02.878Z,38.10
2022-07-30T07:58:38.333Z,37.90
2022-07-30T08:01:19.058Z,37.90
2022-07-30T08:04:10.859Z,37.70
2022-07-30T08:07:04.382Z,37.50
2022-07-30T08:09:58.457Z,37.40
2022-07-30T08:12:52.319Z,37.30
2022-07-30T08:15:55.106Z,37.20
2022-07-30T08:18:49.279Z,37.20
2022-07-30T08:21:35.121Z,37.40
2022-07-30T08:24:08.911Z,37.50
2022-07-30T08:29:31.193Z,37.70
2022-07-30T08:32:07.561Z,37.80
2022-07-30T08:34:46.995Z,37.70
2022-07-30T08:37:21.996Z,37.70
2022-07-30T08:40:13.303Z,37.70
2022-07-30T08:43:06.511Z,37.60
2022-07-30T08:45:41.339Z,37.50
2022-07-30T08:48:46.704Z,37.50
2022-07-30T08:51:29.834Z,37.30
2022-07-30T08:54:13.071Z,37.20
2022-07-30T08:56:50.549Z,37.10
2022-07-30T09:00:00.735Z,37.10
2022-07-30T09:02:27.404Z,36.80
2022-07-30T09:05:07.834Z,36.80
2022-07-30T09:07:43.927Z,36.80
2022-07-30T09:10:27.370Z,36.60
2022-07-30T09:13:01.052Z,36.50
2022-07-30T09:15:48.731Z,36.40
2022-07-30T09:18:33.631Z,36.40
2022-07-30T09:21:18.965Z,36.30
2022-07-30T09:24:06.804Z,36.40
2022-07-30T09:27:05.279Z,36.40
2022-07-30T09:30:03.671Z,36.30
2022-07-30T09:32:57.436Z,36.20
2022-07-30T09:35:49.595Z,36.20
2022-07-30T09:38:52.108Z,36.20
2022-07-30T09:42:05.846Z,36.20
2022-07-30T09:44:39.369Z,36.20
2022-07-30T09:50:09.619Z,36.10
2022-07-30T09:52:48.945Z,36.00
2022-07-30T09:55:41.901Z,35.90
2022-07-30T09:58:26.771Z,35.80
2022-07-30T10:01:04.033Z,35.80
2022-07-30T10:03:58.215Z,35.80
2022-07-30T10:06:50.377Z,35.70
2022-07-30T10:09:40.424Z,35.80
2022-07-30T10:12:16.002Z,35.60
2022-07-30T10:15:00.980Z,35.60
2022-07-30T10:17:39.746Z,35.50
2022-07-30T10:20:43.069Z,35.20
2022-07-30T10:23:55.258Z,35.30
2022-07-30T10:26:46.935Z,35.30
2022-07-30T10:29:42.984Z,35.30
2022-07-30T10:32:19.537Z,35.30
2022-07-30T10:35:05.458Z,35.30
2022-07-30T10:37:41.541Z,35.10
2022-07-30T10:40:23.643Z,35.20
2022-07-30T10:43:47.429Z,35.20
2022-07-30T10:46:33.231Z,35.20
2022-07-30T10:49:30.286Z,35.00
2022-07-30T10:52:14.959Z,35.20
2022-07-30T10:54:49.207Z,34.90
2022-07-30T10:57:32.409Z,34.90
2022-07-30T11:00:19.177Z,34.70
2022-07-30T11:03:16.786Z,34.90
2022-07-30T11:05:55.813Z,34.90
2022-07-30T11:08:49.522Z,34.70
2022-07-30T11:12:05.060Z,34.60
2022-07-30T11:15:07.303Z,34.50
2022-07-30T11:18:12.207Z,34.30
2022-07-30T11:21:07.600Z,34.30
2022-07-30T11:23:54.780Z,34.30
2022-07-30T11:26:55.116Z,34.40
2022-07-30T11:29:50.606Z,34.40
2022-07-30T11:32:33.811Z,34.20
2022-07-30T11:35:34.399Z,34.00
2022-07-30T11:38:11.100Z,34.00
2022-07-30T11:41:24.249Z,33.90
2022-07-30T11:47:19.565Z,33.80
2022-07-30T11:49:54.023Z,33.60
2022-07-30T11:52:28.704Z,33.70
2022-07-30T11:55:02.937Z,33.60
2022-07-30T11:57:47.737Z,33.50
2022-07-30T12:00:22.145Z,33.50
2022-07-30T12:02:57.991Z,33.50
2022-07-30T12:05:34.227Z,33.40
2022-07-30T12:08:08.669Z,33.40
2022-07-30T12:11:05.768Z,33.30
2022-07-30T12:13:44.834Z,33.30
2022-07-30T12:16:23.161Z,33.30
2022-07-30T12:18:57.659Z,33.20
2022-07-30T12:21:32.140Z,33.20
2022-07-30T12:24:09.124Z,33.20
2022-07-30T12:26:43.111Z,33.30
2022-07-30T12:29:19.812Z,33.20
2022-07-30T12:31:56.485Z,33.10
2022-07-30T12:37:22.623Z,33.20
2022-07-30T12:43:01.619Z,33.20
2022-07-30T12:45:50.524Z,33.10
2022-07-30T12:48:27.806Z,33.20
2022-07-30T12:51:11.154Z,33.20
2022-07-30T12:53:47.941Z,33.20
2022-07-30T12:56:24.995Z,33.20
2022-07-30T12:59:00.456Z,33.30
2022-07-30T13:01:51.548Z,33.30
2022-07-30T13:04:26.672Z,33.30
2022-07-30T13:07:10.836Z,33.20
2022-07-30T13:09:45.445Z,33.20
2022-07-30T13:12:21.418Z,33.20
2022-07-30T13:14:55.590Z,33.20
2022-07-30T13:17:36.154Z,33.20
2022-07-30T13:20:12.969Z,33.10
2022-07-30T13:22:50.775Z,33.20
2022-07-30T13:25:25.647Z,33.30
2022-07-30T13:28:12.854Z,33.30
2022-07-30T13:30:48.013Z,33.20
2022-07-30T13:33:24.160Z,33.20
2022-07-30T13:35:59.309Z,33.20
2022-07-30T13:38:34.707Z,33.30
2022-07-30T13:41:11.069Z,33.20
2022-07-30T13:43:45.588Z,33.10
2022-07-30T13:46:19.490Z,33.20
2022-07-30T13:48:55.784Z,33.20
2022-07-30T13:51:30.183Z,33.20
2022-07-30T13:54:04.609Z,33.10
2022-07-30T13:56:40.516Z,33.10
2022-07-30T13:59:15.304Z,33.10
2022-07-30T14:01:50.160Z,33.00
2022-07-30T14:04:26.242Z,33.00
2022-07-30T14:07:00.944Z,33.10
2022-07-30T14:09:45.828Z,33.20
2022-07-30T14:12:22.507Z,33.20
2022-07-30T14:14:56.897Z,33.10
2022-07-30T14:17:31.919Z,33.10
2022-07-30T14:20:09.199Z,33.10
2022-07-30T14:22:44.121Z,33.10
2022-07-30T14:25:19.625Z,33.20
2022-07-30T14:27:54.713Z,33.00
2022-07-30T14:30:29.387Z,33.00
2022-07-30T14:33:04.753Z,32.90
2022-07-30T14:35:41.282Z,33.00
2022-07-30T14:38:21.680Z,33.00
2022-07-30T14:41:01.381Z,32.90
2022-07-30T14:43:36.279Z,32.80
2022-07-30T14:46:11.109Z,32.90
2022-07-30T14:48:45.102Z,32.90
2022-07-30T14:51:26.002Z,32.90
2022-07-30T14:54:13.955Z,32.80
2022-07-30T14:56:49.279Z,32.80
2022-07-30T14:59:23.610Z,32.80
2022-07-30T15:02:01.258Z,32.70
2022-07-30T15:04:35.453Z,32.80
2022-07-30T15:07:13.960Z,32.60
2022-07-30T15:09:55.671Z,32.60
2022-07-30T15:12:30.152Z,32.70
2022-07-30T15:15:04.807Z,32.70
2022-07-30T15:17:42.177Z,32.80
2022-07-30T15:20:17.373Z,32.80
2022-07-30T15:22:54.343Z,32.80
2022-07-30T15:25:29.471Z,32.70
2022-07-30T15:28:03.745Z,32.60
2022-07-30T15:30:38.736Z,32.60
2022-07-30T15:33:13.509Z,32.50
2022-07-30T15:35:48.389Z,32.50
2022-07-30T15:38:24.729Z,32.60
2022-07-30T15:40:59.991Z,32.50
2022-07-30T15:43:34.397Z,32.40
2022-07-30T15:46:08.797Z,32.40
2022-07-30T15:48:42.917Z,32.30
2022-07-30T15:51:18.299Z,32.40
2022-07-30T15:53:57.097Z,32.40
2022-07-30T15:56:33.074Z,32.50
2022-07-30T15:59:07.840Z,32.40
2022-07-30T16:01:42.598Z,32.50
2022-07-30T16:04:31.493Z,32.50
2022-07-30T16:07:07.692Z,32.50
2022-07-30T16:09:44.463Z,32.50
2022-07-30T16:12:18.783Z,32.40
2022-07-30T16:14:53.264Z,32.40
2022-07-30T16:17:28.023Z,32.40
2022-07-30T16:20:02.682Z,32.40
2022-07-30T16:22:37.273Z,32.40
2022-07-30T16:25:14.208Z,32.50
2022-07-30T16:27:50.234Z,32.60
2022-07-30T16:33:31.166Z,32.60
2022-07-30T16:44:45.358Z,32.60
2022-07-30T16:47:19.507Z,32.60
2022-07-30T16:49:53.909Z,32.70
2022-07-30T16:52:27.991Z,32.80
2022-07-30T16:55:02.943Z,32.80
2022-07-30T16:57:39.689Z,32.80
2022-07-30T17:00:16.065Z,32.80
2022-07-30T17:02:51.251Z,32.70
2022-07-30T17:05:25.712Z,32.80
2022-07-30T17:08:01.340Z,32.80
2022-07-30T17:10:35.615Z,32.80
2022-07-30T17:13:11.535Z,32.60
2022-07-30T17:15:46.879Z,32.50
2022-07-30T17:18:21.525Z,32.50
2022-07-30T17:20:56.089Z,32.50
2022-07-30T17:23:30.450Z,32.40
2022-07-30T17:26:04.797Z,32.40
2022-07-30T17:28:40.872Z,32.30
2022-07-30T17:31:14.939Z,32.40
2022-07-30T17:33:49.963Z,32.40
2022-07-30T17:36:24.170Z,32.50
2022-07-30T17:39:01.983Z,32.50
2022-07-30T17:41:36.181Z,32.40
2022-07-30T17:44:32.445Z,32.30
2022-07-30T17:47:08.846Z,32.30
2022-07-30T17:49:46.892Z,32.30
2022-07-30T17:52:25.980Z,32.20
2022-07-30T17:55:00.976Z,32.10
2022-07-30T17:57:34.967Z,32.10
2022-07-30T18:00:13.850Z,32.00
2022-07-30T18:02:47.523Z,32.10
2022-07-30T18:05:21.580Z,32.10
2022-07-30T18:07:56.658Z,32.30
2022-07-30T18:10:31.791Z,32.30
2022-07-30T18:13:19.286Z,32.30
2022-07-30T18:16:02.080Z,32.30
2022-07-30T18:18:40.506Z,32.30
2022-07-30T18:21:18.459Z,32.30
2022-07-30T18:23:52.339Z,32.30
2022-07-30T18:26:27.906Z,32.20
2022-07-30T18:29:02.179Z,32.30
2022-07-30T18:31:38.621Z,32.20
2022-07-30T18:34:12.502Z,32.10
2022-07-30T18:36:46.688Z,32.10
2022-07-30T18:39:20.401Z,32.10
2022-07-30T18:41:54.586Z,32.00
2022-07-30T18:44:28.525Z,32.10
2022-07-30T18:47:04.400Z,32.10
2022-07-30T18:49:38.585Z,32.00
2022-07-30T18:52:12.438Z,32.10
2022-07-30T18:54:46.410Z,32.00
2022-07-30T18:57:20.420Z,32.00
2022-07-30T18:59:54.682Z,32.00
2022-07-30T19:02:30.917Z,31.90
2022-07-30T19:05:04.685Z,32.00
2022-07-30T19:07:57.214Z,32.00
2022-07-30T19:10:32.894Z,31.90
2022-07-30T19:13:07.573Z,31.90
2022-07-30T19:15:41.458Z,31.80
2022-07-30T19:18:17.601Z,31.80
2022-07-30T19:20:52.158Z,31.70
2022-07-30T19:23:26.473Z,31.60
2022-07-30T19:26:00.474Z,31.70
2022-07-30T19:28:34.813Z,31.70
2022-07-30T19:31:08.891Z,31.70
2022-07-30T19:33:44.592Z,31.50
2022-07-30T19:36:22.158Z,31.40
2022-07-30T19:38:59.338Z,31.30
2022-07-30T19:41:44.143Z,31.40
2022-07-30T19:44:19.444Z,31.40
2022-07-30T19:46:53.097Z,31.50
2022-07-30T19:49:29.427Z,31.50
2022-07-30T19:52:17.594Z,31.40
2022-07-30T19:54:58.102Z,31.40
2022-07-30T19:57:52.894Z,31.40
2022-07-30T20:00:28.994Z,31.30
2022-07-30T20:03:03.490Z,31.10
2022-07-30T20:05:57.254Z,31.10
2022-07-30T20:08:34.947Z,31.00
2022-07-30T20:11:09.857Z,30.90
2022-07-30T20:14:03.446Z,30.80
2022-07-30T20:16:38.015Z,30.60
2022-07-30T20:19:12.174Z,30.70
2022-07-30T20:22:06.890Z,30.70
2022-07-30T20:24:41.011Z,30.70
2022-07-30T20:27:36.331Z,30.70
2022-07-30T20:30:11.889Z,30.60
2022-07-30T20:32:47.012Z,30.50
2022-07-30T20:35:22.657Z,30.70
2022-07-30T20:37:58.277Z,30.60
2022-07-30T20:40:32.364Z,30.70
2022-07-30T20:43:08.026Z,30.70
2022-07-30T20:45:43.383Z,30.70
2022-07-30T20:48:25.625Z,30.80
2022-07-30T20:50:59.692Z,30.70
2022-07-30T20:53:37.018Z,30.60
2022-07-30T20:56:11.465Z,30.60
2022-07-30T20:58:48.184Z,30.40
2022-07-30T21:01:22.412Z,30.30
2022-07-30T21:04:00.678Z,30.30
2022-07-30T21:06:38.407Z,30.30
2022-07-30T21:09:15.824Z,30.40
2022-07-30T21:11:50.963Z,30.50
2022-07-30T21:14:24.769Z,30.60
2022-07-30T21:16:59.657Z,30.70
2022-07-30T21:19:33.715Z,30.70
2022-07-30T21:22:07.404Z,30.60
2022-07-30T21:24:43.621Z,30.70
2022-07-30T21:27:17.693Z,30.70
2022-07-30T21:29:53.456Z,30.60
2022-07-30T21:32:28.254Z,30.50
2022-07-30T21:35:08.392Z,30.50
2022-07-30T21:37:42.974Z,30.70
2022-07-30T21:40:24.779Z,30.60
2022-07-30T21:42:58.746Z,30.50
2022-07-30T21:45:38.892Z,30.50
2022-07-30T21:48:13.722Z,30.40
2022-07-30T21:50:47.703Z,30.40
2022-07-30T21:53:26.409Z,30.40
2022-07-30T21:56:19.000Z,30.50
2022-07-30T21:58:53.555Z,30.50
2022-07-30T22:01:27.782Z,30.30
2022-07-30T22:04:07.696Z,30.10
2022-07-30T22:06:44.658Z,30.20
2022-07-30T22:09:34.367Z,30.20
2022-07-30T22:12:12.524Z,30.10
2022-07-30T22:14:52.257Z,30.00
2022-07-30T22:17:36.792Z,30.10
2022-07-30T22:20:12.920Z,30.20
2022-07-30T22:25:41.664Z,30.20
2022-07-30T22:28:21.287Z,30.10
2022-07-30T22:30:56.303Z,30.20
2022-07-30T22:33:31.739Z,30.00
2022-07-30T22:36:06.612Z,30.10
2022-07-30T22:38:43.662Z,30.00
2022-07-30T22:41:33.051Z,30.10
2022-07-30T22:44:09.471Z,30.00
2022-07-30T22:46:47.086Z,30.00
2022-07-30T22:49:45.176Z,29.90
2022-07-30T22:52:28.716Z,29.80
2022-07-30T22:55:08.966Z,29.80
2022-07-30T23:00:34.539Z,29.80
2022-07-30T23:03:08.658Z,29.80
2022-07-30T23:05:43.046Z,29.80
2022-07-30T23:08:30.999Z,30.00
2022-07-30T23:11:05.961Z,30.10
2022-07-30T23:13:41.163Z,30.00
2022-07-30T23:16:17.042Z,30.00
2022-07-30T23:18:51.116Z,30.10
2022-07-30T23:21:27.080Z,30.30
2022-07-30T23:24:01.408Z,30.50
2022-07-30T23:26:35.710Z,30.50
2022-07-30T23:29:13.721Z,30.50
2022-07-30T23:31:52.014Z,30.40
2022-07-30T23:34:26.446Z,30.70
2022-07-30T23:37:00.778Z,31.10
2022-07-30T23:39:35.143Z,31.30
2022-07-30T23:42:09.833Z,31.70
2022-07-30T23:44:43.775Z,31.80
2022-07-30T23:47:19.610Z,31.70
2022-07-30T23:50:14.172Z,31.90
2022-07-30T23:52:48.434Z,32.50
2022-07-30T23:55:22.713Z,32.80
2022-07-30T23:57:56.818Z,32.90
